Time;durP1;ratioP1;P1;durP2;ratioP2;P2;SDS_P1;SDS_P2;PMS_P1;PMS_P2;Temp;Humidity;BMP_temperature;BMP_pressure;BME280_temperature;BME280_humidity;BME280_pressure;Samples;Min_cycle;Max_cycle;Signal;HPM_P1;HPM_P2
2022/07/05 00:01:38;;;;;;;3.13;1.60;;;19.80;83.60;;;;;;5133372;27;45376;-67
2022/07/05 00:04:06;;;;;;;2.78;1.73;;;19.80;83.60;;;;;;5129407;27;45224;-67
2022/07/05 00:06:33;;;;;;;2.67;1.20;;;19.90;83.40;;;;;;5131184;27;45469;-67
2022/07/05 00:08:59;;;;;;;3.67;1.55;;;19.90;83.30;;;;;;5137417;27;46552;-67
2022/07/05 00:11:26;;;;;;;2.08;1.42;;;19.90;83.60;;;;;;5139053;27;45427;-67
2022/07/05 00:13:54;;;;;;;3.10;1.52;;;19.90;83.70;;;;;;5138571;27;45488;-67
2022/07/05 00:16:21;;;;;;;3.20;1.75;;;19.90;82.70;;;;;;5133747;27;45420;-67
2022/07/05 00:18:47;;;;;;;5.20;1.80;;;19.80;82.10;;;;;;5135516;27;45497;-67
2022/07/05 00:21:15;;;;;;;4.10;1.80;;;19.80;82.90;;;;;;5141594;27;45283;-67
2022/07/05 00:23:42;;;;;;;3.15;1.52;;;19.70;83.40;;;;;;5142831;27;45394;-67
2022/07/05 00:26:09;;;;;;;2.58;1.50;;;19.60;83.80;;;;;;5140962;27;45503;-67
2022/07/05 00:28:36;;;;;;;2.92;1.52;;;19.60;84.00;;;;;;5143288;27;46612;-67
2022/07/05 00:31:02;;;;;;;5.88;1.48;;;19.60;84.30;;;;;;5136145;27;45371;-67
2022/07/05 00:33:29;;;;;;;3.70;1.50;;;19.60;84.30;;;;;;5135474;27;45316;-67
2022/07/05 00:35:56;;;;;;;3.53;1.63;;;19.60;84.90;;;;;;5135027;27;45500;-67
2022/07/05 00:38:24;;;;;;;1.77;1.52;;;19.50;85.40;;;;;;5143387;27;48165;-67
2022/07/05 00:40:51;;;;;;;6.15;1.98;;;19.50;85.00;;;;;;5138090;27;45400;-67
2022/07/05 00:43:18;;;;;;;3.15;1.48;;;19.50;84.70;;;;;;5138862;27;45621;-67
2022/07/05 00:45:44;;;;;;;3.63;1.48;;;19.50;84.60;;;;;;5140478;27;45439;-67
2022/07/05 00:48:11;;;;;;;2.42;1.75;;;19.50;84.80;;;;;;5147370;27;46617;-67
2022/07/05 00:50:39;;;;;;;4.35;1.70;;;19.40;85.70;;;;;;5135427;27;45470;-67
2022/07/05 00:53:06;;;;;;;3.42;2.00;;;19.30;85.00;;;;;;5137555;27;45497;-67
2022/07/05 00:55:35;;;;;;;4.22;1.70;;;19.20;85.90;;;;;;5134982;27;45404;-67
2022/07/05 00:58:01;;;;;;;2.20;1.92;;;19.20;85.80;;;;;;5142898;27;46617;-67
2022/07/05 01:00:28;;;;;;;5.15;1.80;;;19.20;86.50;;;;;;5145230;27;45275;-67
2022/07/05 01:02:56;;;;;;;5.82;2.00;;;19.20;85.90;;;;;;5135312;27;45398;-67
2022/07/05 01:05:23;;;;;;;2.95;1.90;;;19.20;86.60;;;;;;5131544;27;45370;-67
2022/07/05 01:07:50;;;;;;;7.53;2.20;;;19.10;86.90;;;;;;5139220;27;45477;-67
2022/07/05 01:10:18;;;;;;;5.00;2.10;;;19.20;86.60;;;;;;5137000;27;45855;-67
2022/07/05 01:12:46;;;;;;;2.17;1.58;;;19.20;86.60;;;;;;5145800;27;45251;-67
2022/07/05 01:15:13;;;;;;;3.25;2.00;;;19.30;86.00;;;;;;5144832;27;45373;-67
2022/07/05 01:17:40;;;;;;;3.97;2.20;;;19.20;87.20;;;;;;5135370;27;47280;-67
2022/07/05 01:20:09;;;;;;;6.68;2.13;;;19.20;86.30;;;;;;5137042;27;45273;-67
2022/07/05 01:22:54;;;;;;;3.28;1.95;;;19.20;86.50;;;;;;5140958;27;45415;-67
2022/07/05 01:25:22;;;;;;;1.70;1.50;;;19.20;86.80;;;;;;5138006;27;45453;-67
2022/07/05 01:27:50;;;;;;;5.35;1.98;;;19.30;87.00;;;;;;5138412;27;45463;-67
2022/07/05 01:30:17;;;;;;;3.38;1.85;;;19.30;85.80;;;;;;5132572;27;45365;-66
2022/07/05 01:32:44;;;;;;;5.13;1.73;;;19.20;86.30;;;;;;5141216;27;45415;-66
2022/07/05 01:35:12;;;;;;;3.15;1.90;;;19.20;86.60;;;;;;5138171;27;45192;-66
2022/07/05 01:37:41;;;;;;;6.80;2.13;;;19.20;87.00;;;;;;5137603;27;46559;-67
2022/07/05 01:40:08;;;;;;;4.40;1.92;;;19.20;86.40;;;;;;5134325;27;45291;-66
2022/07/05 01:42:35;;;;;;;5.63;1.90;;;19.10;86.20;;;;;;5133887;27;45427;-67
2022/07/05 01:45:02;;;;;;;2.22;1.88;;;19.00;86.90;;;;;;5140540;27;45620;-67
2022/07/05 01:47:29;;;;;;;3.45;2.00;;;19.00;87.10;;;;;;5125917;27;46365;-67
2022/07/05 01:49:59;;;;;;;3.65;2.03;;;19.00;87.60;;;;;;5141937;27;45324;-67
2022/07/05 01:52:28;;;;;;;3.25;1.90;;;19.10;87.50;;;;;;5144328;27;45395;-67
2022/07/05 01:54:57;;;;;;;3.78;1.95;;;19.20;87.50;;;;;;5133211;27;45337;-67
2022/07/05 01:57:23;;;;;;;3.83;2.15;;;19.20;86.90;;;;;;5141975;27;46273;-66
2022/07/05 01:59:50;;;;;;;3.50;2.30;;;19.10;87.00;;;;;;5135213;27;45327;-67
2022/07/05 02:02:17;;;;;;;3.63;1.88;;;19.10;86.90;;;;;;5136574;27;45382;-67
2022/07/05 02:04:44;;;;;;;3.55;1.90;;;19.10;87.40;;;;;;5135751;27;45504;-67
2022/07/05 02:07:11;;;;;;;3.90;2.05;;;19.10;87.80;;;;;;5130222;27;46630;-67
2022/07/05 02:09:39;;;;;;;3.08;2.22;;;19.10;87.20;;;;;;5137244;27;45448;-67
2022/07/05 02:12:07;;;;;;;4.03;1.80;;;19.10;87.50;;;;;;5142993;27;45360;-67
2022/07/05 02:14:34;;;;;;;2.72;1.98;;;19.20;88.30;;;;;;5138497;27;45307;-67
2022/07/05 02:17:01;;;;;;;5.43;1.85;;;19.20;87.30;;;;;;5143552;27;46564;-67
2022/07/05 02:19:28;;;;;;;2.20;1.75;;;19.20;87.40;;;;;;5138025;27;45370;-67
2022/07/05 02:21:55;;;;;;;3.10;1.88;;;19.20;87.80;;;;;;5139229;27;45382;-67
2022/07/05 02:24:22;;;;;;;3.42;2.08;;;19.30;87.80;;;;;;5134482;27;45355;-67
2022/07/05 02:26:49;;;;;;;5.40;2.30;;;19.30;87.70;;;;;;5140808;27;45311;-67
2022/07/05 02:29:17;;;;;;;3.67;2.15;;;19.30;87.30;;;;;;5134906;27;45327;-67
2022/07/05 02:31:44;;;;;;;3.38;2.20;;;19.20;87.60;;;;;;5138806;27;45259;-67
2022/07/05 02:34:11;;;;;;;3.92;2.15;;;19.10;87.70;;;;;;5137722;27;45278;-67
2022/07/05 02:36:38;;;;;;;5.25;2.45;;;19.10;87.90;;;;;;5135403;27;47564;-67
2022/07/05 02:39:04;;;;;;;4.07;2.28;;;19.00;88.30;;;;;;5139719;27;45605;-67
2022/07/05 02:41:31;;;;;;;5.68;2.10;;;19.10;88.90;;;;;;5136668;27;45450;-68
2022/07/05 02:43:58;;;;;;;4.80;2.33;;;19.20;88.20;;;;;;5142015;27;45443;-67
2022/07/05 02:46:26;;;;;;;5.30;2.10;;;19.20;88.50;;;;;;5145236;27;47520;-67
2022/07/05 02:48:53;;;;;;;3.03;2.00;;;19.20;88.10;;;;;;5143144;27;46391;-67
2022/07/05 02:51:20;;;;;;;8.10;2.47;;;19.20;88.20;;;;;;5134181;27;45546;-67
2022/07/05 02:53:47;;;;;;;3.72;2.40;;;19.20;88.00;;;;;;5141359;27;45332;-67
2022/07/05 02:56:13;;;;;;;3.53;2.05;;;19.20;88.00;;;;;;5129465;27;47486;-68
2022/07/05 02:58:40;;;;;;;4.07;2.20;;;19.20;87.70;;;;;;5141560;27;45336;-67
2022/07/05 03:01:07;;;;;;;4.68;2.20;;;19.20;87.60;;;;;;5139961;27;45221;-67
2022/07/05 03:03:35;;;;;;;7.47;2.30;;;19.10;87.60;;;;;;5139084;27;45448;-67
2022/07/05 03:06:02;;;;;;;3.13;2.20;;;19.10;87.70;;;;;;5132444;27;48757;-67
2022/07/05 03:08:29;;;;;;;3.88;2.08;;;19.00;87.80;;;;;;5138014;27;45668;-67
2022/07/05 03:10:56;;;;;;;5.82;2.65;;;18.90;88.40;;;;;;5140708;27;45599;-67
2022/07/05 03:13:23;;;;;;;5.10;2.50;;;18.80;88.90;;;;;;5134573;27;45465;-68
2022/07/05 03:15:49;;;;;;;4.65;2.70;;;18.80;89.40;;;;;;5135135;27;45501;-67
2022/07/05 03:18:16;;;;;;;6.07;2.45;;;18.80;89.60;;;;;;5143807;27;45346;-68
2022/07/05 03:20:44;;;;;;;8.50;2.47;;;18.70;89.80;;;;;;5142511;27;45341;-67
2022/07/05 03:23:11;;;;;;;6.13;2.58;;;18.70;90.10;;;;;;5143723;27;45444;-67
2022/07/05 03:25:38;;;;;;;6.13;2.70;;;18.60;90.30;;;;;;5132118;27;46360;-67
2022/07/05 03:28:05;;;;;;;6.60;3.20;;;18.50;90.60;;;;;;5133192;27;45301;-67
2022/07/05 03:30:31;;;;;;;5.45;2.60;;;18.50;91.20;;;;;;5133124;27;45451;-67
2022/07/05 03:32:58;;;;;;;5.65;2.40;;;18.40;90.80;;;;;;5134620;27;45460;-67
2022/07/05 03:35:25;;;;;;;4.97;2.28;;;18.50;90.90;;;;;;5136625;27;47829;-67
2022/07/05 03:37:53;;;;;;;5.65;2.50;;;18.50;90.90;;;;;;5140962;27;45588;-67
2022/07/05 03:40:20;;;;;;;5.30;2.33;;;18.50;90.70;;;;;;5139275;27;45262;-68
2022/07/05 03:42:46;;;;;;;11.27;2.80;;;18.50;90.80;;;;;;5137363;27;45434;-67
2022/07/05 03:45:13;;;;;;;5.93;2.70;;;18.50;90.90;;;;;;5142304;27;47986;-67
2022/07/05 03:47:40;;;;;;;5.97;2.55;;;18.40;90.90;;;;;;5141234;27;45227;-67
2022/07/05 03:50:08;;;;;;;6.25;2.40;;;18.40;91.10;;;;;;5133191;27;45417;-67
2022/07/05 03:52:35;;;;;;;7.35;2.90;;;18.30;91.10;;;;;;5142561;27;45407;-67
2022/07/05 03:55:03;;;;;;;7.88;2.67;;;18.30;91.10;;;;;;5136784;27;47347;-67
2022/07/05 03:57:30;;;;;;;7.07;2.63;;;18.30;91.10;;;;;;5129941;27;45391;-67
2022/07/05 03:59:57;;;;;;;4.80;2.95;;;18.40;91.10;;;;;;5128705;27;45402;-66
2022/07/05 04:02:23;;;;;;;9.05;2.55;;;18.40;91.00;;;;;;5138103;27;45951;-68
2022/07/05 04:04:50;;;;;;;4.85;2.85;;;18.50;90.80;;;;;;5127384;27;45539;-67
2022/07/05 04:07:17;;;;;;;4.55;2.55;;;18.50;90.70;;;;;;5128842;27;45607;-67
2022/07/05 04:09:44;;;;;;;7.05;2.40;;;18.50;90.80;;;;;;5134919;27;45427;-67
2022/07/05 04:12:12;;;;;;;3.25;2.40;;;18.60;90.70;;;;;;5143613;27;45350;-67
2022/07/05 04:14:39;;;;;;;3.92;2.55;;;18.60;90.70;;;;;;5140049;27;45365;-67
2022/07/05 04:17:05;;;;;;;3.35;2.05;;;18.70;90.40;;;;;;5141327;27;45559;-67
2022/07/05 04:19:32;;;;;;;3.95;2.30;;;18.70;90.70;;;;;;5141285;27;45302;-67
2022/07/05 04:21:59;;;;;;;5.22;2.50;;;18.80;90.20;;;;;;5145227;27;45301;-67
2022/07/05 04:24:25;;;;;;;5.50;2.50;;;18.80;90.20;;;;;;5147267;27;47477;-67
2022/07/05 04:26:52;;;;;;;3.67;2.30;;;18.80;90.30;;;;;;5148116;27;45360;-68
2022/07/05 04:29:20;;;;;;;6.25;2.17;;;18.70;90.30;;;;;;5146280;27;45317;-66
2022/07/05 04:31:47;;;;;;;9.07;2.20;;;18.70;90.60;;;;;;5147596;27;45423;-66
2022/07/05 04:34:14;;;;;;;4.95;2.50;;;18.60;90.80;;;;;;5146227;27;46657;-67
2022/07/05 04:36:41;;;;;;;2.97;2.13;;;18.50;90.80;;;;;;5138994;27;45393;-67
2022/07/05 04:39:09;;;;;;;5.50;2.35;;;18.60;91.00;;;;;;5146190;27;45365;-68
2022/07/05 04:41:35;;;;;;;6.38;2.50;;;18.50;91.20;;;;;;5143800;27;45329;-67
2022/07/05 04:44:02;;;;;;;4.93;2.30;;;18.50;91.30;;;;;;5147180;27;47280;-67
2022/07/05 04:46:31;;;;;;;6.40;2.65;;;18.50;91.10;;;;;;5142379;27;45715;-67
2022/07/05 04:48:57;;;;;;;2.45;1.95;;;18.60;89.20;;;;;;5142455;27;45392;-67
2022/07/05 04:51:24;;;;;;;6.20;1.77;;;18.70;87.60;;;;;;5139690;27;45430;-65
2022/07/05 04:53:51;;;;;;;6.00;2.65;;;18.70;87.80;;;;;;5139569;27;47489;-67
2022/07/05 04:56:18;;;;;;;5.40;2.70;;;18.60;84.50;;;;;;5146620;27;45299;-67
2022/07/05 04:58:45;;;;;;;8.98;3.88;;;16.00;96.20;;;;;;5140376;27;45353;-66
2022/07/05 05:01:11;;;;;;;11.23;3.90;;;15.60;99.00;;;;;;5146958;27;45326;-67
2022/07/05 05:03:39;;;;;;;9.80;3.95;;;15.70;99.90;;;;;;5142307;27;46033;-67
2022/07/05 05:06:06;;;;;;;12.73;3.97;;;15.90;99.90;;;;;;5147614;27;45373;-66
2022/07/05 05:08:33;;;;;;;10.00;4.38;;;16.20;99.90;;;;;;5139846;27;45307;-67
2022/07/05 05:11:00;;;;;;;8.73;4.18;;;16.30;99.90;;;;;;5139989;27;45481;-67
2022/07/05 05:13:26;;;;;;;8.10;4.07;;;16.30;99.90;;;;;;5136943;27;46617;-67
2022/07/05 05:15:53;;;;;;;8.60;4.40;;;16.20;99.90;;;;;;5130322;27;45328;-67
2022/07/05 05:18:24;;;;;;;6.63;3.72;;;16.20;99.90;;;;;;5142735;27;45424;-67
2022/07/05 05:20:52;;;;;;;6.82;3.80;;;16.30;99.90;;;;;;5139875;27;45443;-67
2022/07/05 05:23:19;;;;;;;7.90;3.95;;;16.20;99.90;;;;;;5132063;27;46291;-67
2022/07/05 05:25:45;;;;;;;11.88;4.22;;;16.20;99.90;;;;;;5137115;27;45352;-67
2022/07/05 05:28:12;;;;;;;7.88;4.07;;;16.20;99.90;;;;;;5134579;27;45517;-67
2022/07/05 05:30:40;;;;;;;7.43;4.28;;;16.10;99.90;;;;;;5140235;27;45291;-67
2022/07/05 05:33:06;;;;;;;8.98;4.50;;;16.10;99.90;;;;;;5129364;27;45436;-67
2022/07/05 05:35:33;;;;;;;7.85;4.22;;;16.20;99.90;;;;;;5133831;27;45304;-67
2022/07/05 05:38:01;;;;;;;13.20;4.32;;;16.30;99.90;;;;;;5130859;27;45556;-67
2022/07/05 05:40:28;;;;;;;7.75;4.60;;;16.30;99.90;;;;;;5128390;27;45651;-67
2022/07/05 05:42:56;;;;;;;7.10;4.43;;;16.40;99.90;;;;;;5133193;27;45453;-66
2022/07/05 05:45:23;;;;;;;9.20;4.90;;;16.50;99.90;;;;;;5129891;27;45463;-67
2022/07/05 05:47:52;;;;;;;8.75;4.75;;;16.60;99.90;;;;;;5133984;27;45343;-67
2022/07/05 05:50:20;;;;;;;8.43;4.50;;;16.60;99.90;;;;;;5137194;27;45526;-68
2022/07/05 05:52:47;;;;;;;10.02;4.15;;;16.70;99.90;;;;;;5136737;27;48247;-67
2022/07/05 05:55:15;;;;;;;8.75;4.20;;;16.80;99.90;;;;;;5137120;27;45403;-67
2022/07/05 05:57:42;;;;;;;8.05;4.70;;;16.90;99.90;;;;;;5144794;27;45618;-67
2022/07/05 06:00:11;;;;;;;11.00;4.57;;;17.00;99.90;;;;;;5126606;27;45475;-68
2022/07/05 06:02:38;;;;;;;7.40;4.20;;;17.00;99.90;;;;;;5123828;27;49025;-67
2022/07/05 06:05:06;;;;;;;11.45;4.22;;;17.00;99.90;;;;;;5124132;27;45299;-68
2022/07/05 06:07:44;;;;;;;8.18;4.07;;;17.00;99.90;;;;;;5124377;27;45562;-67
2022/07/05 06:10:10;;;;;;;9.23;4.03;;;17.10;99.90;;;;;;5123962;27;45760;-67
2022/07/05 06:12:38;;;;;;;5.55;4.05;;;17.10;99.90;;;;;;5125289;27;47500;-67
2022/07/05 06:15:06;;;;;;;7.55;3.70;;;17.20;99.90;;;;;;5125281;27;45316;-67
2022/07/05 06:17:37;;;;;;;7.03;3.70;;;17.20;99.50;;;;;;5125712;27;45237;-67
2022/07/05 06:20:06;;;;;;;10.05;3.80;;;17.30;98.60;;;;;;5133518;27;45444;-67
2022/07/05 06:22:32;;;;;;;7.05;3.45;;;17.50;97.20;;;;;;5145731;27;48933;-67
2022/07/05 06:24:59;;;;;;;8.95;3.78;;;17.50;97.60;;;;;;5131455;27;45374;-67
2022/07/05 06:27:26;;;;;;;6.38;3.10;;;17.60;95.90;;;;;;5125470;27;45266;-66
2022/07/05 06:29:54;;;;;;;7.88;3.63;;;17.60;95.90;;;;;;5131189;27;45310;-67
2022/07/05 06:32:21;;;;;;;10.52;3.95;;;17.70;95.80;;;;;;5131674;27;47522;-67
2022/07/05 06:34:48;;;;;;;9.48;2.70;;;17.70;95.50;;;;;;5127210;27;45370;-67
2022/07/05 06:37:15;;;;;;;5.75;3.38;;;17.80;94.90;;;;;;5124634;27;45452;-67
2022/07/05 06:39:41;;;;;;;7.22;3.80;;;18.00;94.60;;;;;;5124069;27;45475;-67
2022/07/05 06:42:08;;;;;;;5.00;3.40;;;17.90;94.20;;;;;;5123819;27;46781;-67
2022/07/05 06:44:35;;;;;;;4.78;2.78;;;17.90;94.80;;;;;;5124924;27;45340;-66
2022/07/05 06:47:03;;;;;;;4.00;2.78;;;18.00;93.70;;;;;;5137360;27;45338;-67
2022/07/05 06:49:30;;;;;;;8.77;2.95;;;18.10;94.30;;;;;;5125568;27;45422;-67
2022/07/05 06:51:57;;;;;;;7.95;3.08;;;18.10;93.20;;;;;;5137436;27;47485;-67
2022/07/05 06:54:24;;;;;;;8.45;3.10;;;18.10;92.60;;;;;;5131064;27;45339;-67
2022/07/05 06:56:50;;;;;;;10.02;3.13;;;18.20;92.60;;;;;;5125297;27;45430;-67
2022/07/05 06:59:17;;;;;;;5.30;2.80;;;18.20;91.50;;;;;;5136839;27;45455;-67
2022/07/05 07:01:44;;;;;;;8.82;2.38;;;18.20;92.00;;;;;;5136115;27;47123;-67
2022/07/05 07:04:12;;;;;;;6.22;2.95;;;18.30;92.00;;;;;;5141042;27;45467;-67
2022/07/05 07:06:39;;;;;;;5.43;2.60;;;18.40;92.10;;;;;;5125263;27;45359;-67
2022/07/05 07:09:21;;;;;;;7.18;2.45;;;18.30;91.20;;;;;;5124007;27;45535;-67
2022/07/05 07:11:49;;;;;;;11.60;2.40;;;18.40;88.70;;;;;;5126545;27;46503;-67
2022/07/05 07:14:16;;;;;;;5.75;2.50;;;18.40;90.60;;;;;;5140821;27;45516;-67
2022/07/05 07:16:43;;;;;;;6.78;2.47;;;18.60;90.80;;;;;;5132802;27;45379;-67
2022/07/05 07:19:11;;;;;;;6.03;2.47;;;18.60;90.90;;;;;;5139879;27;45395;-67
2022/07/05 07:21:38;;;;;;;5.75;2.95;;;18.60;91.00;;;;;;5134676;27;47169;-67
2022/07/05 07:24:06;;;;;;;6.13;2.38;;;18.80;90.30;;;;;;5135030;27;45239;-67
2022/07/05 07:27:02;;;;;;;7.90;2.50;;;18.70;88.90;;;;;;5142627;27;45495;-67
2022/07/05 07:29:20;;;;;;;8.65;3.00;;;18.70;90.40;;;;;;5134570;27;45500;-66
2022/07/05 07:31:47;;;;;;;4.38;2.28;;;18.90;87.40;;;;;;5131040;27;46570;-68
2022/07/05 07:34:15;;;;;;;4.32;2.20;;;18.80;90.00;;;;;;5137250;27;46200;-67
2022/07/05 07:36:42;;;;;;;7.28;2.85;;;18.90;88.60;;;;;;5139182;27;45551;-67
2022/07/05 07:39:09;;;;;;;9.70;2.70;;;18.80;89.80;;;;;;5133119;27;45499;-67
2022/07/05 07:41:35;;;;;;;6.32;2.38;;;18.80;89.70;;;;;;5141547;27;46609;-67
2022/07/05 07:44:02;;;;;;;4.93;2.17;;;19.10;86.20;;;;;;5137133;27;45323;-67
2022/07/05 07:46:29;;;;;;;8.30;2.63;;;19.20;85.70;;;;;;5135894;27;45256;-67
2022/07/05 07:48:56;;;;;;;6.38;2.10;;;19.00;85.40;;;;;;5138906;27;45373;-67
2022/07/05 07:51:24;;;;;;;8.68;2.50;;;19.00;85.70;;;;;;5137776;27;46307;-68
2022/07/05 07:53:51;;;;;;;7.80;2.10;;;19.10;82.60;;;;;;5133846;27;45576;-67
2022/07/05 07:56:18;;;;;;;5.80;2.10;;;19.10;80.60;;;;;;5143634;27;45408;-67
2022/07/05 07:58:45;;;;;;;2.97;1.45;;;19.20;82.60;;;;;;5141127;27;45444;-67
2022/07/05 08:01:11;;;;;;;7.38;1.60;;;19.30;81.50;;;;;;5138083;27;48142;-67
2022/07/05 08:03:39;;;;;;;4.13;1.45;;;19.40;80.60;;;;;;5138252;27;45514;-67
2022/07/05 08:06:07;;;;;;;4.80;1.48;;;19.60;78.20;;;;;;5143751;27;45614;-67
2022/07/05 08:08:36;;;;;;;5.78;1.80;;;19.40;77.80;;;;;;5136581;27;45567;-67
2022/07/05 08:11:03;;;;;;;6.65;1.40;;;19.50;80.00;;;;;;5140246;27;46260;-68
2022/07/05 08:13:30;;;;;;;3.80;1.30;;;19.70;78.00;;;;;;5141683;27;45444;-67
2022/07/05 08:15:57;;;;;;;2.42;1.27;;;19.70;75.10;;;;;;5136498;27;45303;-67
2022/07/05 08:23:54;;;;;;;4.38;1.50;;;19.80;76.30;;;;;;5138576;27;45378;-67
2022/07/05 08:26:21;;;;;;;3.38;1.50;;;19.90;75.60;;;;;;5132194;27;45432;-67
2022/07/05 08:28:48;;;;;;;4.97;1.40;;;19.70;77.30;;;;;;5139315;27;45404;-66
2022/07/05 08:31:15;;;;;;;5.50;1.85;;;19.80;74.50;;;;;;5137420;27;45400;-66
2022/07/05 08:33:42;;;;;;;6.13;1.80;;;20.00;76.60;;;;;;5137091;27;45361;-66
2022/07/05 08:36:09;;;;;;;3.90;1.63;;;19.90;76.30;;;;;;5146239;27;45434;-67
2022/07/05 08:38:36;;;;;;;5.82;1.60;;;19.90;74.90;;;;;;5138557;27;45406;-67
2022/07/05 08:41:08;;;;;;;3.58;1.90;;;19.90;75.60;;;;;;5139199;27;46351;-66
2022/07/05 08:43:37;;;;;;;2.70;1.60;;;20.00;76.30;;;;;;5139261;27;45452;-66
2022/07/05 08:46:08;;;;;;;6.47;2.28;;;20.20;74.50;;;;;;5132724;27;45382;-67
2022/07/05 08:48:41;;;;;;;4.93;2.08;;;20.30;73.60;;;;;;5141486;27;45288;-66
2022/07/05 08:51:11;;;;;;;6.72;1.83;;;20.20;74.10;;;;;;5130841;27;47994;-66
2022/07/05 08:53:38;;;;;;;4.63;1.65;;;20.20;73.30;;;;;;5145585;27;45291;-66
2022/07/05 08:56:09;;;;;;;6.38;1.95;;;20.40;71.40;;;;;;5146185;27;45269;-67
2022/07/05 08:58:36;;;;;;;4.32;1.55;;;20.40;72.80;;;;;;5144606;27;45391;-66
2022/07/05 09:01:04;;;;;;;6.70;1.60;;;20.50;72.20;;;;;;5136885;27;46231;-66
2022/07/05 09:03:33;;;;;;;4.90;1.90;;;20.60;72.20;;;;;;5138668;27;45528;-67
2022/07/05 09:06:02;;;;;;;5.38;1.35;;;20.50;72.20;;;;;;5129789;27;45413;-66
2022/07/05 09:08:33;;;;;;;2.22;1.20;;;20.50;69.20;;;;;;5135638;27;45353;-66
2022/07/05 09:11:02;;;;;;;2.30;1.23;;;20.40;70.50;;;;;;5144637;27;47305;-67
2022/07/05 09:13:34;;;;;;;2.70;1.20;;;20.60;70.00;;;;;;5128061;27;45577;-67
2022/07/05 09:16:00;;;;;;;6.20;1.60;;;20.60;69.20;;;;;;5137471;27;45263;-67
2022/07/05 09:18:40;;;;;;;5.47;1.40;;;20.50;70.10;;;;;;5144838;27;45241;-67
2022/07/05 09:21:13;;;;;;;3.42;1.08;;;20.40;71.10;;;;;;5134338;27;47380;-67
2022/07/05 09:23:40;;;;;;;5.70;1.27;;;20.50;69.20;;;;;;5128969;27;45664;-66
2022/07/05 09:26:07;;;;;;;1.30;1.10;;;20.60;68.60;;;;;;5130239;27;45373;-67
2022/07/05 09:28:35;;;;;;;4.93;1.25;;;20.70;68.80;;;;;;5139494;27;45429;-67
2022/07/05 09:31:02;;;;;;;7.18;1.50;;;20.80;69.60;;;;;;5143571;27;46402;-66
2022/07/05 09:33:29;;;;;;;2.20;1.13;;;21.10;66.60;;;;;;5135860;27;45353;-65
2022/07/05 09:35:57;;;;;;;3.65;1.23;;;21.10;71.40;;;;;;5140071;27;45386;-66
2022/07/05 09:38:25;;;;;;;8.10;1.48;;;21.20;69.40;;;;;;5132302;27;45475;-67
2022/07/05 09:40:53;;;;;;;2.13;1.20;;;21.20;68.50;;;;;;5128556;27;47196;-67
2022/07/05 09:43:21;;;;;;;6.25;1.50;;;21.20;71.60;;;;;;5133423;27;45411;-67
2022/07/05 09:45:54;;;;;;;2.30;1.20;;;21.20;68.50;;;;;;5144171;27;45408;-67
2022/07/05 09:48:21;;;;;;;5.53;1.73;;;21.20;71.10;;;;;;5145095;27;45291;-66
2022/07/05 09:50:50;;;;;;;6.07;1.52;;;21.10;70.10;;;;;;5143688;27;46320;-67
2022/07/05 09:53:16;;;;;;;3.97;1.45;;;21.00;70.30;;;;;;5144372;27;45641;-66
2022/07/05 09:55:49;;;;;;;5.97;1.40;;;21.00;72.30;;;;;;5145243;27;45383;-67
2022/07/05 09:58:26;;;;;;;4.45;1.10;;;21.00;71.30;;;;;;5122853;27;45320;-67
2022/07/05 10:00:54;;;;;;;4.53;1.10;;;21.00;72.00;;;;;;5123954;27;45489;-67
2022/07/05 10:03:21;;;;;;;4.65;1.58;;;21.00;72.10;;;;;;5125194;27;45470;-66
2022/07/05 10:05:48;;;;;;;4.63;1.58;;;21.00;72.60;;;;;;5125551;27;45445;-67
2022/07/05 10:08:16;;;;;;;8.15;2.40;;;21.00;73.20;;;;;;5125740;27;45369;-67
2022/07/05 10:10:47;;;;;;;2.33;1.50;;;21.10;72.20;;;;;;5124606;27;48939;-66
2022/07/05 10:13:15;;;;;;;2.78;1.08;;;21.10;75.10;;;;;;5126109;27;45325;-67
2022/07/05 10:15:44;;;;;;;4.97;1.52;;;21.10;73.90;;;;;;5146066;27;45422;-66
2022/07/05 10:18:21;;;;;;;5.00;1.30;;;21.20;76.10;;;;;;5136182;27;45327;-66
2022/07/05 10:20:48;;;;;;;1.65;0.70;;;21.20;68.00;;;;;;5124530;27;47082;-66
2022/07/05 10:23:17;;;;;;;5.43;0.95;;;21.30;70.10;;;;;;5125518;27;45370;-66
2022/07/05 10:25:47;;;;;;;2.80;0.73;;;21.30;70.00;;;;;;5124934;27;45382;-67
2022/07/05 10:28:15;;;;;;;6.05;1.10;;;21.30;70.40;;;;;;5133098;27;45673;-67
2022/07/05 10:30:45;;;;;;;1.48;0.80;;;21.40;67.80;;;;;;5143106;27;45262;-67
2022/07/05 10:33:14;;;;;;;3.22;0.95;;;21.50;68.40;;;;;;5144889;27;45319;-67
2022/07/05 10:35:43;;;;;;;3.38;0.80;;;21.50;66.60;;;;;;5131337;27;45502;-67
2022/07/05 10:38:11;;;;;;;5.32;1.10;;;21.60;63.80;;;;;;5125492;27;45486;-67
2022/07/05 10:40:38;;;;;;;1.88;0.90;;;21.70;67.80;;;;;;5127341;27;46447;-67
2022/07/05 10:43:06;;;;;;;5.75;1.08;;;21.70;65.20;;;;;;5126701;27;45445;-67
2022/07/05 10:45:35;;;;;;;5.03;0.93;;;21.60;65.60;;;;;;5135998;27;45490;-67
2022/07/05 10:48:16;;;;;;;2.00;0.90;;;21.50;71.80;;;;;;5135635;27;45671;-68
2022/07/05 10:50:45;;;;;;;2.38;0.70;;;21.60;64.20;;;;;;5131875;27;45464;-67
2022/07/05 10:53:12;;;;;;;4.53;0.82;;;21.60;64.80;;;;;;5127452;27;45505;-68
2022/07/05 10:55:50;;;;;;;3.88;1.00;;;21.60;62.90;;;;;;5127708;27;45478;-67
2022/07/05 10:58:27;;;;;;;3.53;1.23;;;21.70;63.40;;;;;;5133069;27;45447;-66
2022/07/05 11:01:43;;;;;;;0.95;0.85;;;21.70;62.10;;;;;;5136105;27;47502;-66
2022/07/05 11:04:35;;;;;;;4.75;1.08;;;21.70;62.20;;;;;;5130859;27;45516;-66
2022/07/05 11:07:02;;;;;;;3.88;1.05;;;21.70;64.20;;;;;;5129066;27;45627;-66
2022/07/05 11:09:29;;;;;;;1.98;1.00;;;21.70;62.80;;;;;;5128730;27;45715;-67
2022/07/05 11:12:14;;;;;;;4.60;0.90;;;21.70;64.90;;;;;;5129401;27;46291;-67
2022/07/05 11:14:48;;;;;;;4.47;0.85;;;21.60;63.10;;;;;;5132783;27;45299;-67
2022/07/05 11:17:29;;;;;;;3.28;1.13;;;21.60;62.70;;;;;;5131896;27;45614;-67
2022/07/05 11:20:16;;;;;;;5.93;0.85;;;21.60;61.40;;;;;;5141978;27;45367;-67
2022/07/05 11:23:06;;;;;;;2.90;0.98;;;21.70;63.60;;;;;;5135236;27;46592;-67
2022/07/05 11:25:35;;;;;;;3.58;1.35;;;21.70;62.00;;;;;;5139694;27;45338;-67
2022/07/05 11:28:12;;;;;;;4.05;1.10;;;21.80;65.00;;;;;;5136273;27;45445;-67
2022/07/05 11:30:50;;;;;;;7.53;1.02;;;21.80;61.50;;;;;;5131592;27;45355;-67
2022/07/05 11:33:38;;;;;;;5.40;1.10;;;21.90;62.60;;;;;;5135800;27;46331;-67
2022/07/05 11:36:20;;;;;;;6.00;1.08;;;21.90;64.00;;;;;;5128174;27;45992;-67
2022/07/05 11:39:08;;;;;;;4.85;1.30;;;21.90;64.80;;;;;;5126123;27;45663;-67
2022/07/05 11:41:38;;;;;;;5.68;1.30;;;21.70;62.70;;;;;;5130770;27;45463;-67
2022/07/05 11:44:07;;;;;;;5.00;1.30;;;21.60;63.50;;;;;;5130152;27;45544;-67
2022/07/05 11:46:34;;;;;;;4.38;0.80;;;21.70;63.90;;;;;;5137468;27;45385;-67
2022/07/05 11:49:02;;;;;;;3.88;1.10;;;21.70;70.70;;;;;;5141168;27;45503;-68
2022/07/05 11:51:30;;;;;;;2.67;1.00;;;21.60;62.60;;;;;;5142787;27;45309;-67
2022/07/05 11:53:57;;;;;;;2.15;1.10;;;21.60;63.90;;;;;;5142359;27;45499;-67
2022/07/05 11:56:24;;;;;;;2.30;1.20;;;21.80;64.70;;;;;;5131603;27;45844;-67
2022/07/05 11:58:51;;;;;;;4.72;1.05;;;21.80;63.80;;;;;;5122097;27;45426;-67
2022/07/05 12:01:18;;;;;;;2.25;1.00;;;21.80;63.50;;;;;;5121185;27;45418;-67
2022/07/05 12:03:55;;;;;;;3.42;1.00;;;21.80;62.00;;;;;;5124219;27;45441;-66
2022/07/05 12:06:23;;;;;;;3.42;0.95;;;21.90;59.50;;;;;;5123596;27;45372;-67
2022/07/05 12:09:04;;;;;;;1.73;0.88;;;21.90;59.50;;;;;;5123935;27;45452;-67
2022/07/05 12:14:21;;;;;;;9.13;1.20;;;22.10;58.40;;;;;;5138766;27;45697;-66
2022/07/05 12:16:48;;;;;;;5.72;1.20;;;22.10;56.70;;;;;;5144090;27;45440;-67
2022/07/05 12:19:25;;;;;;;1.60;0.85;;;22.10;58.00;;;;;;5143853;27;45321;-66
2022/07/05 12:21:54;;;;;;;4.45;1.15;;;22.20;58.90;;;;;;5144577;27;45357;-67
2022/07/05 12:24:23;;;;;;;4.85;1.55;;;22.20;58.50;;;;;;5143933;27;47600;-66
2022/07/05 12:26:51;;;;;;;2.75;1.10;;;22.00;65.00;;;;;;5143850;27;45280;-67
2022/07/05 12:29:19;;;;;;;3.92;1.50;;;21.90;60.00;;;;;;5143021;27;45401;-67
2022/07/05 12:32:01;;;;;;;3.47;1.10;;;21.90;61.40;;;;;;5144575;27;45297;-67
2022/07/05 12:34:29;;;;;;;6.22;1.00;;;21.80;63.00;;;;;;5141279;27;47827;-67
2022/07/05 12:36:56;;;;;;;2.05;1.02;;;21.90;61.50;;;;;;5143843;27;45470;-67
2022/07/05 12:39:24;;;;;;;2.47;0.98;;;21.90;59.40;;;;;;5143811;27;45424;-66
2022/07/05 12:41:51;;;;;;;2.85;1.15;;;21.90;60.50;;;;;;5146848;27;45778;-67
2022/07/05 12:44:20;;;;;;;5.43;1.30;;;21.90;60.70;;;;;;5147319;27;46490;-67
2022/07/05 12:46:49;;;;;;;4.38;0.90;;;22.00;58.80;;;;;;5146689;27;45455;-66
2022/07/05 12:49:15;;;;;;;4.75;1.10;;;22.00;59.60;;;;;;5145571;27;45511;-67
2022/07/05 12:51:44;;;;;;;2.92;1.05;;;22.00;61.40;;;;;;5132926;27;45589;-67
2022/07/05 12:59:59;;;;;;;5.07;1.20;;;22.10;56.80;;;;;;5152568;27;45200;-66
2022/07/05 13:02:40;;;;;;;5.15;1.08;;;22.20;57.80;;;;;;5168769;27;45319;-67
2022/07/05 13:05:09;;;;;;;3.38;1.00;;;22.20;57.70;;;;;;5149689;27;47287;-66
2022/07/05 13:07:42;;;;;;;1.55;1.20;;;22.20;58.10;;;;;;5147047;27;45401;-66